createdAt,value
2022-08-09T00:00:04.202Z,20.63
2022-08-09T00:01:10.712Z,20.63
2022-08-09T00:02:18.969Z,20.61
2022-08-09T00:04:03.586Z,20.61
2022-08-09T00:04:43.705Z,20.61
2022-08-09T00:06:19.549Z,20.59
2022-08-09T00:07:25.527Z,20.58
2022-08-09T00:08:33.099Z,20.57
2022-08-09T00:09:35.756Z,20.56
2022-08-09T00:10:40.632Z,20.55
2022-08-09T00:12:03.220Z,20.55
2022-08-09T00:13:06.609Z,20.52
2022-08-09T00:14:21.754Z,20.51
2022-08-09T00:15:58.164Z,20.49
2022-08-09T00:16:53.078Z,20.51
2022-08-09T00:18:05.138Z,20.50
2022-08-09T00:19:13.545Z,20.49
2022-08-09T00:20:21.130Z,20.48
2022-08-09T00:21:24.441Z,20.47
2022-08-09T00:22:35.136Z,20.46
2022-08-09T00:23:56.395Z,20.46
2022-08-09T00:25:08.431Z,20.44
2022-08-09T00:26:14.491Z,20.44
2022-08-09T00:27:17.193Z,20.43
2022-08-09T00:28:19.747Z,20.43
2022-08-09T00:30:09.902Z,20.41
2022-08-09T00:30:46.591Z,20.42
2022-08-09T00:31:58.416Z,20.41
2022-08-09T00:33:01.710Z,20.41
2022-08-09T00:34:04.488Z,20.38
2022-08-09T00:35:08.290Z,20.38
2022-08-09T00:36:09.955Z,20.38
2022-08-09T00:37:12.525Z,20.37
2022-08-09T00:38:15.306Z,20.37
2022-08-09T00:40:09.656Z,20.36
2022-08-09T00:40:40.035Z,20.35
2022-08-09T00:44:13.883Z,20.32
2022-08-09T00:44:14.247Z,20.34
2022-08-09T00:44:41.115Z,20.33
2022-08-09T00:45:50.593Z,20.33
2022-08-09T00:47:01.776Z,20.33
2022-08-09T00:48:07.539Z,20.32
2022-08-09T00:49:10.184Z,20.32
2022-08-09T00:50:14.228Z,20.32
2022-08-09T00:51:18.795Z,20.31
2022-08-09T00:52:22.813Z,20.30
2022-08-09T00:53:32.736Z,20.30
2022-08-09T00:54:37.936Z,20.30
2022-08-09T00:56:05.668Z,20.29
2022-08-09T00:57:08.768Z,20.27
2022-08-09T00:58:14.781Z,20.27
2022-08-09T00:59:40.659Z,20.27
2022-08-09T01:00:44.671Z,20.26
2022-08-09T01:01:51.496Z,20.24
2022-08-09T01:03:00.662Z,20.25
2022-08-09T01:04:10.000Z,20.24
2022-08-09T01:05:22.416Z,20.23
2022-08-09T01:06:55.598Z,20.22
2022-08-09T01:08:04.775Z,20.21
2022-08-09T01:09:19.173Z,20.19
2022-08-09T01:10:39.007Z,20.18
2022-08-09T01:11:56.559Z,20.18
2022-08-09T01:13:04.723Z,20.17
2022-08-09T01:14:21.829Z,20.16
2022-08-09T01:15:31.242Z,20.13
2022-08-09T01:16:38.864Z,20.14
2022-08-09T01:17:46.952Z,20.13
2022-08-09T01:19:02.627Z,20.13
2022-08-09T01:20:10.632Z,20.13
2022-08-09T01:21:24.860Z,20.12
2022-08-09T01:23:03.044Z,20.12
2022-08-09T01:24:15.068Z,20.11
2022-08-09T01:25:24.799Z,20.10
2022-08-09T01:26:46.315Z,20.09
2022-08-09T01:27:57.905Z,20.09
2022-08-09T01:29:02.652Z,20.07
2022-08-09T01:30:08.196Z,20.06
2022-08-09T01:31:23.386Z,20.07
2022-08-09T01:32:45.537Z,20.06
2022-08-09T01:33:50.148Z,20.05
2022-08-09T01:34:55.436Z,20.03
2022-08-09T01:36:02.555Z,20.03
2022-08-09T01:37:09.782Z,20.03
2022-08-09T01:38:18.522Z,20.02
2022-08-09T01:39:23.625Z,20.01
2022-08-09T01:40:29.189Z,20.00
2022-08-09T01:41:35.650Z,19.99
2022-08-09T01:42:40.901Z,20.00
2022-08-09T01:43:52.759Z,19.98
2022-08-09T01:44:55.607Z,19.98
2022-08-09T01:45:58.400Z,19.96
2022-08-09T01:47:02.254Z,19.96
2022-08-09T01:48:06.455Z,19.96
2022-08-09T01:49:12.791Z,19.95
2022-08-09T01:50:18.078Z,19.93
2022-08-09T01:51:33.144Z,19.92
2022-08-09T01:52:36.907Z,19.91
2022-08-09T01:53:44.387Z,19.90
2022-08-09T01:54:57.232Z,19.88
2022-08-09T01:56:00.276Z,19.88
2022-08-09T01:57:08.392Z,19.86
2022-08-09T01:58:13.658Z,19.86
2022-08-09T01:59:19.565Z,19.84
2022-08-09T02:00:35.394Z,19.85
2022-08-09T02:02:00.081Z,19.83
2022-08-09T02:03:06.517Z,19.82
2022-08-09T02:04:10.560Z,19.79
2022-08-09T02:05:16.513Z,19.80
2022-08-09T02:06:45.535Z,19.77
2022-08-09T02:08:38.627Z,19.76
2022-08-09T02:09:42.272Z,19.74
2022-08-09T02:10:50.952Z,19.74
2022-08-09T02:11:54.449Z,19.72
2022-08-09T02:13:04.070Z,19.73
2022-08-09T02:14:10.215Z,19.71
2022-08-09T02:15:21.168Z,19.71
2022-08-09T02:16:33.776Z,19.70
2022-08-09T02:18:00.176Z,19.69
2022-08-09T02:19:01.834Z,19.69
2022-08-09T02:20:05.607Z,19.66
2022-08-09T02:21:11.105Z,19.67
2022-08-09T02:22:35.735Z,19.65
2022-08-09T02:23:43.170Z,19.65
2022-08-09T02:24:51.943Z,19.64
2022-08-09T02:25:58.011Z,19.62
2022-08-09T02:27:06.577Z,19.62
2022-08-09T02:28:13.226Z,19.62
2022-08-09T02:29:25.414Z,19.61
2022-08-09T02:30:31.323Z,19.61
2022-08-09T02:31:38.043Z,19.60
2022-08-09T02:32:45.440Z,19.59
2022-08-09T02:34:07.298Z,19.58
2022-08-09T02:35:25.728Z,19.57
2022-08-09T02:36:46.750Z,19.55
2022-08-09T02:38:00.253Z,19.55
2022-08-09T02:39:07.134Z,19.54
2022-08-09T02:40:27.110Z,19.53
2022-08-09T02:41:38.457Z,19.53
2022-08-09T02:42:43.950Z,19.52
2022-08-09T02:43:54.737Z,19.52
2022-08-09T02:45:03.802Z,19.50
2022-08-09T02:46:11.858Z,19.49
2022-08-09T02:47:16.111Z,19.49
2022-08-09T02:48:30.739Z,19.48
2022-08-09T02:49:38.902Z,19.48
2022-08-09T02:50:54.391Z,19.47
2022-08-09T02:52:00.035Z,19.47
2022-08-09T02:53:25.724Z,19.47
2022-08-09T02:54:30.363Z,19.46
2022-08-09T02:55:57.649Z,19.46
2022-08-09T02:57:13.705Z,19.45
2022-08-09T02:58:35.764Z,19.43
2022-08-09T02:59:40.034Z,19.43
2022-08-09T03:01:07.786Z,19.41
2022-08-09T03:02:16.833Z,19.41
2022-08-09T03:03:37.323Z,19.39
2022-08-09T03:04:45.354Z,19.39
2022-08-09T03:05:49.381Z,19.38
2022-08-09T03:07:12.373Z,19.38
2022-08-09T03:08:18.128Z,19.37
2022-08-09T03:09:22.236Z,19.35
2022-08-09T03:10:26.813Z,19.36
2022-08-09T03:12:06.183Z,19.35
2022-08-09T03:12:57.407Z,19.34
2022-08-09T03:14:02.042Z,19.33
2022-08-09T03:15:05.877Z,19.33
2022-08-09T03:16:09.636Z,19.31
2022-08-09T03:17:16.348Z,19.31
2022-08-09T03:18:31.251Z,19.31
2022-08-09T03:19:59.653Z,19.31
2022-08-09T03:20:58.425Z,19.31
2022-08-09T03:22:03.263Z,19.29
2022-08-09T03:23:14.969Z,19.27
2022-08-09T03:24:31.725Z,19.27
2022-08-09T03:25:59.144Z,19.26
2022-08-09T03:27:09.164Z,19.25
2022-08-09T03:28:14.382Z,19.25
2022-08-09T03:29:22.674Z,19.23
2022-08-09T03:30:33.378Z,19.25
2022-08-09T03:31:42.768Z,19.23
2022-08-09T03:33:05.761Z,19.23
2022-08-09T03:34:19.955Z,19.20
2022-08-09T03:36:11.277Z,19.19
2022-08-09T03:36:58.188Z,19.18
2022-08-09T03:38:02.064Z,19.17
2022-08-09T03:39:05.490Z,19.16
2022-08-09T03:40:09.189Z,19.16
2022-08-09T03:41:18.221Z,19.15
2022-08-09T03:42:20.360Z,19.14
2022-08-09T03:43:33.119Z,19.14
2022-08-09T03:44:34.801Z,19.14
2022-08-09T03:46:05.126Z,19.13
2022-08-09T03:47:03.043Z,19.13
2022-08-09T03:48:06.781Z,19.11
2022-08-09T03:49:10.561Z,19.11
2022-08-09T03:50:14.154Z,19.11
2022-08-09T03:51:56.961Z,19.09
2022-08-09T03:52:46.466Z,19.09
2022-08-09T03:53:49.739Z,19.08
2022-08-09T03:54:53.887Z,19.08
2022-08-09T03:55:58.392Z,19.07
2022-08-09T03:57:18.507Z,19.07
2022-08-09T03:58:22.148Z,19.07
2022-08-09T03:59:42.598Z,19.05
2022-08-09T04:00:48.305Z,19.05
2022-08-09T04:01:50.717Z,19.05
2022-08-09T04:02:57.362Z,19.04
2022-08-09T04:04:04.746Z,19.03
2022-08-09T04:05:26.599Z,19.03
2022-08-09T04:06:29.568Z,19.02
2022-08-09T04:07:47.084Z,19.02
2022-08-09T04:08:54.897Z,19.01
2022-08-09T04:09:56.567Z,18.98
2022-08-09T04:11:01.491Z,18.98
2022-08-09T04:12:30.430Z,18.96
2022-08-09T04:13:45.123Z,18.96
2022-08-09T04:15:00.636Z,18.95
2022-08-09T04:16:19.509Z,18.95
2022-08-09T04:17:22.666Z,18.95
2022-08-09T04:18:26.613Z,18.93
2022-08-09T04:19:42.717Z,18.93
2022-08-09T04:20:53.483Z,18.91
2022-08-09T04:21:55.129Z,18.90
2022-08-09T04:23:00.327Z,18.89
2022-08-09T04:24:04.421Z,18.87
2022-08-09T04:25:09.260Z,18.88
2022-08-09T04:26:11.290Z,18.87
2022-08-09T04:27:13.918Z,18.86
2022-08-09T04:28:16.348Z,18.86
2022-08-09T04:29:36.113Z,18.88
2022-08-09T04:30:44.757Z,18.87
2022-08-09T04:31:47.814Z,18.86
2022-08-09T04:32:51.380Z,18.87
2022-08-09T04:33:57.131Z,18.86
2022-08-09T04:35:01.535Z,18.87
2022-08-09T04:36:04.787Z,18.87
2022-08-09T04:37:09.011Z,18.86
2022-08-09T04:38:11.645Z,18.87
2022-08-09T04:39:13.375Z,18.87
2022-08-09T04:40:19.174Z,18.87
2022-08-09T04:41:23.629Z,18.88
2022-08-09T04:42:29.748Z,18.88
2022-08-09T04:43:33.643Z,18.88
2022-08-09T04:44:38.453Z,18.88
2022-08-09T04:45:53.053Z,18.88
2022-08-09T04:47:04.380Z,18.88
2022-08-09T04:48:10.524Z,18.89
2022-08-09T04:49:14.900Z,18.89
2022-08-09T04:50:16.812Z,18.89
2022-08-09T04:51:22.366Z,18.89
2022-08-09T04:52:26.425Z,18.90
2022-08-09T04:53:31.524Z,18.90
2022-08-09T04:54:33.452Z,18.90
2022-08-09T04:55:43.601Z,18.89
2022-08-09T04:56:59.084Z,18.90
2022-08-09T04:58:09.570Z,18.89
2022-08-09T04:59:15.322Z,18.89
2022-08-09T05:00:18.508Z,18.90
2022-08-09T05:01:21.108Z,18.91
2022-08-09T05:02:27.442Z,18.91
2022-08-09T05:03:43.071Z,18.92
2022-08-09T05:04:47.388Z,18.92
2022-08-09T05:05:51.928Z,18.94
2022-08-09T05:06:54.414Z,18.95
2022-08-09T05:07:59.102Z,18.95
2022-08-09T05:09:01.264Z,18.95
2022-08-09T05:10:04.442Z,18.96
2022-08-09T05:11:07.715Z,18.95
2022-08-09T05:12:11.111Z,18.96
2022-08-09T05:13:14.688Z,18.95
2022-08-09T05:14:17.211Z,18.95
2022-08-09T05:15:24.612Z,18.96
2022-08-09T05:16:43.802Z,18.96
2022-08-09T05:18:55.057Z,18.98
2022-08-09T05:19:25.800Z,18.98
2022-08-09T05:20:29.958Z,18.98
2022-08-09T05:21:36.384Z,18.99
2022-08-09T05:23:57.134Z,18.99
2022-08-09T05:24:02.672Z,18.99
2022-08-09T05:25:06.666Z,19.00
2022-08-09T05:26:11.693Z,19.02
2022-08-09T05:27:28.297Z,19.04
2022-08-09T05:28:33.277Z,19.03
2022-08-09T05:29:36.234Z,19.05
2022-08-09T05:30:39.021Z,19.05
2022-08-09T05:31:57.065Z,19.07
2022-08-09T05:33:01.972Z,19.08
2022-08-09T05:34:03.725Z,19.09
2022-08-09T05:35:08.034Z,19.11
2022-08-09T05:36:13.292Z,19.14
2022-08-09T05:37:18.152Z,19.16
2022-08-09T05:38:21.621Z,19.16
2022-08-09T05:39:29.640Z,19.18
2022-08-09T05:40:38.453Z,19.20
2022-08-09T05:41:40.327Z,19.27
2022-08-09T05:42:43.112Z,19.29
2022-08-09T05:43:48.939Z,19.33
2022-08-09T05:44:53.898Z,19.34
2022-08-09T05:45:57.781Z,19.37
2022-08-09T05:47:00.623Z,19.40
2022-08-09T05:48:02.248Z,19.43
2022-08-09T05:49:07.466Z,19.49
2022-08-09T05:50:44.057Z,19.59
2022-08-09T05:51:51.426Z,19.70
2022-08-09T05:52:55.033Z,19.78
2022-08-09T05:53:57.967Z,19.86
2022-08-09T05:55:03.258Z,19.96
2022-08-09T05:56:09.209Z,20.04
2022-08-09T05:57:19.217Z,20.11
2022-08-09T05:58:24.606Z,20.20
2022-08-09T05:59:26.227Z,20.28
2022-08-09T06:00:30.496Z,20.35
2022-08-09T06:01:42.727Z,20.44
2022-08-09T06:02:46.866Z,20.49
2022-08-09T06:03:54.551Z,20.55
2022-08-09T06:05:01.292Z,20.59
2022-08-09T06:06:05.814Z,20.65
2022-08-09T06:07:10.467Z,20.69
2022-08-09T06:08:24.997Z,20.72
2022-08-09T06:09:54.468Z,20.79
2022-08-09T06:10:49.849Z,20.84
2022-08-09T06:11:57.626Z,20.87
2022-08-09T06:13:12.377Z,20.94
2022-08-09T06:14:21.777Z,21.00
2022-08-09T06:15:23.719Z,21.06
2022-08-09T06:16:29.544Z,21.14
2022-08-09T06:17:39.106Z,21.21
2022-08-09T06:18:42.798Z,21.26
2022-08-09T06:19:45.436Z,21.30
2022-08-09T06:20:49.881Z,21.36
2022-08-09T06:21:58.361Z,21.40
2022-08-09T06:23:04.159Z,21.45
2022-08-09T06:24:06.782Z,21.50
2022-08-09T06:25:12.339Z,21.56
2022-08-09T06:26:21.044Z,21.59
2022-08-09T06:27:24.647Z,21.62
2022-08-09T06:28:44.411Z,21.65
2022-08-09T06:29:58.813Z,21.68
2022-08-09T06:31:10.710Z,21.72
2022-08-09T06:32:58.853Z,21.75
2022-08-09T06:33:41.582Z,21.76
2022-08-09T06:34:45.563Z,21.77
2022-08-09T06:35:57.701Z,21.78
2022-08-09T06:37:00.860Z,21.82
2022-08-09T06:38:06.238Z,21.87
2022-08-09T06:39:11.543Z,21.93
2022-08-09T06:40:21.886Z,21.95
2022-08-09T06:42:07.538Z,21.95
2022-08-09T06:42:48.622Z,21.98
2022-08-09T06:43:50.631Z,22.02
2022-08-09T06:44:57.273Z,22.04
2022-08-09T06:46:08.100Z,22.07
2022-08-09T06:47:13.594Z,22.09
2022-08-09T06:48:16.828Z,22.13
2022-08-09T06:50:11.935Z,22.16
2022-08-09T06:50:55.924Z,22.20
2022-08-09T06:51:57.488Z,22.25
2022-08-09T06:53:01.377Z,22.28
2022-08-09T06:54:04.451Z,22.28
2022-08-09T06:55:12.949Z,22.29
2022-08-09T06:56:15.651Z,22.29
2022-08-09T06:57:17.262Z,22.28
2022-08-09T07:00:46.882Z,22.29
2022-08-09T07:00:51.082Z,22.29
2022-08-09T07:01:13.110Z,22.30
2022-08-09T07:02:16.685Z,22.31
2022-08-09T07:03:19.499Z,22.33
2022-08-09T07:04:30.834Z,22.35
2022-08-09T07:05:58.213Z,22.36
2022-08-09T07:07:00.443Z,22.34
2022-08-09T07:08:02.553Z,22.35
2022-08-09T07:09:07.669Z,22.33
2022-08-09T07:10:32.155Z,22.27
2022-08-09T07:11:51.987Z,22.25
2022-08-09T07:12:57.614Z,22.18
2022-08-09T07:14:05.277Z,22.14
2022-08-09T07:16:38.932Z,22.10
2022-08-09T07:16:42.476Z,22.05
2022-08-09T07:17:52.810Z,22.02
2022-08-09T07:18:59.171Z,22.03
2022-08-09T07:20:05.555Z,22.05
2022-08-09T07:21:10.801Z,22.04
2022-08-09T07:22:13.968Z,22.02
2022-08-09T07:23:18.736Z,22.03
2022-08-09T07:24:31.544Z,22.03
2022-08-09T07:25:38.860Z,22.04
2022-08-09T07:26:45.360Z,22.04
2022-08-09T07:27:53.483Z,22.07
2022-08-09T07:29:08.526Z,22.08
2022-08-09T07:30:14.653Z,22.08
2022-08-09T07:31:17.724Z,22.08
2022-08-09T07:32:32.474Z,22.08
2022-08-09T07:33:53.248Z,22.08
2022-08-09T07:34:57.857Z,22.06
2022-08-09T07:36:00.560Z,22.08
2022-08-09T07:37:03.633Z,22.10
2022-08-09T07:38:06.393Z,22.09
2022-08-09T07:39:11.921Z,22.11
2022-08-09T07:40:26.800Z,22.10
2022-08-09T07:41:32.994Z,22.09
2022-08-09T07:42:54.363Z,22.10
2022-08-09T07:43:57.299Z,22.10
2022-08-09T07:45:02.521Z,22.12
2022-08-09T07:46:11.579Z,22.16
2022-08-09T07:47:19.608Z,22.22
2022-08-09T07:48:30.422Z,22.26
2022-08-09T07:49:32.527Z,22.31
2022-08-09T07:50:40.455Z,22.35
2022-08-09T07:52:04.589Z,22.38
2022-08-09T07:53:05.864Z,22.38
2022-08-09T07:54:08.935Z,22.40
2022-08-09T07:55:11.837Z,22.43
2022-08-09T07:56:26.548Z,22.46
2022-08-09T07:57:35.666Z,22.49
2022-08-09T07:58:37.792Z,22.51
2022-08-09T07:59:46.144Z,22.54
2022-08-09T08:00:58.897Z,22.57
2022-08-09T08:02:09.548Z,22.58
2022-08-09T08:03:12.466Z,22.61
2022-08-09T08:04:14.108Z,22.63
2022-08-09T08:05:19.529Z,22.66
2022-08-09T08:06:21.490Z,22.70
2022-08-09T08:08:43.723Z,22.71
2022-08-09T08:09:03.682Z,22.72
2022-08-09T08:10:11.001Z,22.74
2022-08-09T08:12:09.403Z,22.76
2022-08-09T08:12:42.470Z,22.77
2022-08-09T08:13:57.355Z,22.78
2022-08-09T08:15:00.725Z,22.79
2022-08-09T08:16:03.847Z,22.80
2022-08-09T08:17:08.654Z,22.82
2022-08-09T08:18:11.799Z,22.83
2022-08-09T08:19:17.378Z,22.86
2022-08-09T08:20:29.382Z,22.86
2022-08-09T08:21:33.293Z,22.86
2022-08-09T08:22:34.965Z,22.89
2022-08-09T08:23:40.890Z,22.92
2022-08-09T08:24:48.646Z,22.94
2022-08-09T08:25:54.315Z,22.96
2022-08-09T08:27:16.923Z,22.97
2022-08-09T08:28:25.539Z,22.98
2022-08-09T08:29:39.664Z,22.99
2022-08-09T08:30:51.595Z,23.01
2022-08-09T08:32:03.497Z,23.04
2022-08-09T08:33:11.972Z,23.05
2022-08-09T08:34:25.339Z,23.04
2022-08-09T08:35:37.120Z,23.06
2022-08-09T08:36:50.854Z,23.05
2022-08-09T08:37:59.425Z,23.06
2022-08-09T08:39:02.694Z,23.06
2022-08-09T08:40:06.905Z,23.06
2022-08-09T08:41:10.882Z,23.09
2022-08-09T08:42:16.710Z,23.10
2022-08-09T08:43:21.043Z,23.14
2022-08-09T08:44:29.396Z,23.16
2022-08-09T08:45:37.801Z,23.18
2022-08-09T08:46:41.476Z,23.20
2022-08-09T08:48:03.794Z,23.21
2022-08-09T08:49:07.725Z,23.24
2022-08-09T08:50:18.278Z,23.26
2022-08-09T08:51:20.609Z,23.28
2022-08-09T08:54:02.999Z,23.29
2022-08-09T08:55:06.553Z,23.29
2022-08-09T08:56:16.843Z,23.30
2022-08-09T08:57:30.554Z,23.29
2022-08-09T08:58:38.799Z,23.31
2022-08-09T08:59:49.254Z,23.31
2022-08-09T09:00:57.414Z,23.34
2022-08-09T09:02:03.063Z,23.34
2022-08-09T09:03:16.306Z,23.34
2022-08-09T09:04:31.982Z,23.37
2022-08-09T09:05:58.289Z,23.38
2022-08-09T09:07:09.819Z,23.41
2022-08-09T09:08:30.848Z,23.43
2022-08-09T09:09:58.692Z,23.46
2022-08-09T09:11:02.623Z,23.47
2022-08-09T09:12:16.512Z,23.50
2022-08-09T09:13:20.531Z,23.54
2022-08-09T09:14:27.971Z,23.58
2022-08-09T09:15:34.801Z,23.61
2022-08-09T09:16:36.525Z,23.66
2022-08-09T09:17:48.707Z,23.68
2022-08-09T09:19:10.764Z,23.70
2022-08-09T09:20:18.182Z,23.71
2022-08-09T09:21:26.174Z,23.73
2022-08-09T09:22:29.419Z,23.73
2022-08-09T09:23:42.242Z,23.76
2022-08-09T09:24:57.836Z,23.78
2022-08-09T09:26:11.853Z,23.81
2022-08-09T09:27:22.109Z,23.83
2022-08-09T09:29:04.052Z,23.85
2022-08-09T09:32:05.954Z,23.88
2022-08-09T09:33:15.472Z,23.92
2022-08-09T09:34:19.302Z,23.95
2022-08-09T09:35:24.173Z,24.00
2022-08-09T09:36:39.378Z,24.04
2022-08-09T09:37:54.844Z,24.05
2022-08-09T09:39:02.296Z,24.06
2022-08-09T09:40:11.528Z,24.06
2022-08-09T09:41:49.901Z,24.05
2022-08-09T09:42:56.883Z,24.05
2022-08-09T09:44:12.513Z,24.08
2022-08-09T09:45:26.540Z,24.08
2022-08-09T09:46:41.948Z,24.10
2022-08-09T09:47:56.597Z,24.14
2022-08-09T09:49:04.739Z,24.15
2022-08-09T09:50:15.778Z,24.19
2022-08-09T09:51:26.026Z,24.21
2022-08-09T09:52:52.235Z,24.23
2022-08-09T09:54:14.243Z,24.26
2022-08-09T09:55:31.205Z,24.29
2022-08-09T09:56:36.575Z,24.34
2022-08-09T09:58:02.377Z,24.36
2022-08-09T09:59:09.437Z,24.38
2022-08-09T10:00:26.419Z,24.40
2022-08-09T10:01:37.527Z,24.44
2022-08-09T10:02:46.664Z,24.47
2022-08-09T10:03:57.488Z,24.50
2022-08-09T10:05:07.333Z,24.52
2022-08-09T10:06:12.475Z,24.53
2022-08-09T10:07:24.084Z,24.54
2022-08-09T10:08:28.289Z,24.55
2022-08-09T10:09:48.743Z,24.55
2022-08-09T10:10:50.748Z,24.58
2022-08-09T10:12:11.593Z,24.62
2022-08-09T10:13:24.786Z,24.62
2022-08-09T10:14:37.457Z,24.62
2022-08-09T10:16:09.009Z,24.62
2022-08-09T10:17:39.110Z,24.62
2022-08-09T10:18:34.841Z,24.62
2022-08-09T10:19:37.741Z,24.66
2022-08-09T10:20:44.696Z,24.69
2022-08-09T10:21:52.313Z,24.73
2022-08-09T10:23:00.470Z,24.75
2022-08-09T10:24:04.943Z,24.76
2022-08-09T10:25:11.680Z,24.78
2022-08-09T10:26:16.823Z,24.79
2022-08-09T10:27:22.202Z,24.80
2022-08-09T10:28:28.683Z,24.83
2022-08-09T10:30:49.261Z,24.86
2022-08-09T10:32:40.242Z,24.87
2022-08-09T10:34:07.820Z,24.90
2022-08-09T10:35:10.180Z,24.91
2022-08-09T10:36:13.280Z,24.93
2022-08-09T10:37:16.388Z,24.94
2022-08-09T10:38:54.601Z,24.96
2022-08-09T10:39:49.419Z,24.96
2022-08-09T10:40:52.082Z,24.98
2022-08-09T10:41:54.723Z,25.02
2022-08-09T10:42:57.055Z,25.04
2022-08-09T10:44:01.999Z,25.07
2022-08-09T10:45:10.583Z,25.10
2022-08-09T10:46:55.608Z,25.11
2022-08-09T10:48:19.483Z,25.11
2022-08-09T10:49:42.754Z,25.12
2022-08-09T10:51:11.887Z,25.14
2022-08-09T10:52:44.940Z,25.15
2022-08-09T10:53:58.171Z,25.16
2022-08-09T10:55:20.296Z,25.16
2022-08-09T10:56:24.522Z,25.20
2022-08-09T10:57:36.317Z,25.23
2022-08-09T10:58:42.858Z,25.25
2022-08-09T10:59:57.444Z,25.27
2022-08-09T11:03:02.734Z,25.28
2022-08-09T11:03:16.506Z,25.31
2022-08-09T11:04:28.052Z,25.32
2022-08-09T11:05:34.555Z,25.32
2022-08-09T11:06:39.518Z,25.35
2022-08-09T11:07:55.778Z,25.35
2022-08-09T11:09:16.137Z,25.36
2022-08-09T11:10:56.452Z,25.35
2022-08-09T11:12:12.723Z,25.36
2022-08-09T11:13:51.063Z,25.37
2022-08-09T11:14:41.693Z,25.38
2022-08-09T11:15:51.241Z,25.40
2022-08-09T11:17:53.474Z,25.40
2022-08-09T11:18:59.963Z,25.42
2022-08-09T11:20:19.697Z,25.46
2022-08-09T11:22:10.262Z,25.46
2022-08-09T11:23:24.300Z,25.45
2022-08-09T11:25:04.603Z,25.45
2022-08-09T11:26:07.232Z,25.48
2022-08-09T11:28:03.891Z,25.51
2022-08-09T11:28:55.840Z,25.50
2022-08-09T11:30:05.179Z,25.54
2022-08-09T11:31:49.091Z,25.55
2022-08-09T11:32:59.739Z,25.57
2022-08-09T11:34:06.602Z,25.61
2022-08-09T11:37:31.226Z,25.63
2022-08-09T11:38:42.779Z,25.66
2022-08-09T11:40:01.633Z,25.70
2022-08-09T11:41:37.576Z,25.71
2022-08-09T11:42:43.431Z,25.75
2022-08-09T11:43:48.669Z,25.76
2022-08-09T11:44:55.120Z,25.79
2022-08-09T11:46:01.239Z,25.80
2022-08-09T11:47:04.009Z,25.79
2022-08-09T11:48:26.188Z,25.80
2022-08-09T11:50:53.641Z,25.77
2022-08-09T11:52:53.916Z,25.78
2022-08-09T11:53:58.029Z,25.79
2022-08-09T11:54:43.412Z,25.79
2022-08-09T11:55:53.471Z,25.84
2022-08-09T11:57:56.449Z,25.83
2022-08-09T11:59:01.420Z,25.83
2022-08-09T12:00:12.874Z,25.85
2022-08-09T12:02:00.922Z,25.86
2022-08-09T12:02:51.185Z,25.86
2022-08-09T12:04:00.709Z,25.88
2022-08-09T12:05:04.316Z,25.89
2022-08-09T12:06:15.778Z,25.93
2022-08-09T12:07:18.410Z,25.96
2022-08-09T12:08:22.103Z,25.99
2022-08-09T12:09:26.988Z,26.02
2022-08-09T12:10:39.833Z,26.05
2022-08-09T12:12:02.059Z,26.08
2022-08-09T12:14:08.352Z,26.08
2022-08-09T12:14:40.996Z,26.07
2022-08-09T12:16:01.197Z,26.06
2022-08-09T12:17:33.984Z,26.09
2022-08-09T12:18:33.681Z,26.09
2022-08-09T12:19:35.531Z,26.13
2022-08-09T12:20:44.885Z,26.15
2022-08-09T12:21:51.518Z,26.18
2022-08-09T12:22:56.806Z,26.22
2022-08-09T12:24:09.054Z,26.23
2022-08-09T12:25:14.999Z,26.24
2022-08-09T12:26:19.727Z,26.27
2022-08-09T12:29:12.312Z,26.32
2022-08-09T12:29:12.576Z,26.29
2022-08-09T12:30:35.676Z,26.32
2022-08-09T12:31:59.050Z,26.30
2022-08-09T12:33:05.217Z,26.31
2022-08-09T12:34:09.286Z,26.34
2022-08-09T12:35:21.765Z,26.37
2022-08-09T12:36:32.279Z,26.40
2022-08-09T12:37:50.336Z,26.46
2022-08-09T12:38:55.579Z,26.49
2022-08-09T12:40:08.207Z,26.52
2022-08-09T12:41:10.195Z,26.50
2022-08-09T12:42:16.182Z,26.52
2022-08-09T12:43:21.609Z,26.52
2022-08-09T12:44:51.954Z,26.52
2022-08-09T12:46:00.113Z,26.53
2022-08-09T12:47:03.532Z,26.53
2022-08-09T12:48:20.044Z,26.55
2022-08-09T12:49:32.957Z,26.54
2022-08-09T12:50:35.708Z,26.54
2022-08-09T12:52:00.557Z,26.57
2022-08-09T12:53:17.402Z,26.56
2022-08-09T12:54:21.822Z,26.57
2022-08-09T12:56:14.330Z,26.61
2022-08-09T12:56:54.073Z,26.59
2022-08-09T12:57:56.501Z,26.60
2022-08-09T12:59:10.354Z,26.61
2022-08-09T13:00:17.690Z,26.63
2022-08-09T13:01:28.191Z,26.66
2022-08-09T13:02:46.334Z,26.66
2022-08-09T13:04:01.775Z,26.66
2022-08-09T13:05:04.855Z,26.69
2022-08-09T13:06:16.005Z,26.71
2022-08-09T13:07:28.614Z,26.71
2022-08-09T13:08:58.516Z,26.69
2022-08-09T13:10:05.170Z,26.71
2022-08-09T13:11:23.144Z,26.70
2022-08-09T13:12:29.176Z,26.66
2022-08-09T13:13:37.962Z,26.67
2022-08-09T13:15:05.034Z,26.66
2022-08-09T13:16:15.603Z,26.67
2022-08-09T13:17:43.956Z,26.70
2022-08-09T13:18:47.004Z,26.70
2022-08-09T13:20:07.411Z,26.74
2022-08-09T13:22:37.765Z,26.74
2022-08-09T13:23:05.385Z,26.77
2022-08-09T13:24:42.534Z,26.80
2022-08-09T13:25:42.846Z,26.82
2022-08-09T13:26:49.935Z,26.84
2022-08-09T13:27:55.896Z,26.85
2022-08-09T13:29:18.490Z,26.86
2022-08-09T13:30:50.253Z,26.88
2022-08-09T13:32:17.382Z,26.86
2022-08-09T13:33:24.709Z,26.88
2022-08-09T13:34:47.915Z,26.90
2022-08-09T13:36:38.130Z,26.94
2022-08-09T13:37:12.256Z,26.95
2022-08-09T13:38:54.655Z,27.00
2022-08-09T13:41:50.813Z,27.06
2022-08-09T13:41:52.559Z,27.01
2022-08-09T13:42:35.174Z,27.08
2022-08-09T13:43:39.872Z,27.10
2022-08-09T13:44:43.144Z,27.13
2022-08-09T13:46:44.647Z,27.16
2022-08-09T13:47:29.403Z,27.15
2022-08-09T13:48:35.055Z,27.14
2022-08-09T13:49:56.009Z,27.16
2022-08-09T13:51:00.238Z,27.17
2022-08-09T13:52:01.971Z,27.17
2022-08-09T13:53:04.596Z,27.19
2022-08-09T13:54:10.234Z,27.19
2022-08-09T13:55:17.575Z,27.21
2022-08-09T13:56:19.986Z,27.21
2022-08-09T13:57:37.132Z,27.23
2022-08-09T13:58:42.828Z,27.21
2022-08-09T13:59:44.569Z,27.22
2022-08-09T14:00:52.385Z,27.23
2022-08-09T14:01:56.221Z,27.22
2022-08-09T14:04:03.809Z,27.21
2022-08-09T14:04:28.356Z,27.19
2022-08-09T14:06:00.525Z,27.21
2022-08-09T14:06:55.398Z,27.20
2022-08-09T14:08:01.417Z,27.21
2022-08-09T14:09:06.465Z,27.22
2022-08-09T14:10:17.193Z,27.22
2022-08-09T14:11:32.064Z,27.20
2022-08-09T14:12:44.066Z,27.20
2022-08-09T14:14:23.074Z,27.20
2022-08-09T14:16:06.618Z,27.18
2022-08-09T14:16:32.841Z,27.17
2022-08-09T14:18:06.439Z,27.20
2022-08-09T14:18:59.399Z,27.19
2022-08-09T14:20:01.793Z,27.21
2022-08-09T14:21:06.971Z,27.23
2022-08-09T14:22:11.681Z,27.24
2022-08-09T14:23:22.793Z,27.28
2022-08-09T14:24:36.257Z,27.29
2022-08-09T14:25:51.622Z,27.33
2022-08-09T14:26:55.135Z,27.36
2022-08-09T14:27:58.717Z,27.37
2022-08-09T14:29:08.112Z,27.38
2022-08-09T14:30:36.763Z,27.35
2022-08-09T14:31:51.901Z,27.36
2022-08-09T14:32:56.469Z,27.37
2022-08-09T14:33:59.470Z,27.40
2022-08-09T14:35:08.151Z,27.42
2022-08-09T14:36:19.769Z,27.45
2022-08-09T14:37:28.093Z,27.45
2022-08-09T14:38:30.340Z,27.46
2022-08-09T14:39:40.489Z,27.48
2022-08-09T14:41:04.231Z,27.46
2022-08-09T14:42:30.776Z,27.42
2022-08-09T14:43:47.579Z,27.42
2022-08-09T14:44:59.631Z,27.41
2022-08-09T14:46:56.604Z,27.43
2022-08-09T14:47:43.018Z,27.41
2022-08-09T14:48:47.402Z,27.41
2022-08-09T14:50:01.991Z,27.44
2022-08-09T14:51:05.581Z,27.45
2022-08-09T14:52:07.328Z,27.49
2022-08-09T14:53:13.679Z,27.53
2022-08-09T14:54:16.718Z,27.53
2022-08-09T14:55:24.938Z,27.55
2022-08-09T14:56:28.498Z,27.56
2022-08-09T14:57:31.874Z,27.57
2022-08-09T14:58:45.309Z,27.56
2022-08-09T14:59:52.417Z,27.57
2022-08-09T15:00:57.688Z,27.58
2022-08-09T15:01:59.524Z,27.58
2022-08-09T15:03:10.624Z,27.59
2022-08-09T15:04:12.544Z,27.59
2022-08-09T15:05:17.138Z,27.62
2022-08-09T15:06:21.124Z,27.66
2022-08-09T15:07:28.333Z,27.67
2022-08-09T15:08:32.489Z,27.68
2022-08-09T15:10:07.615Z,27.68
2022-08-09T15:11:00.964Z,27.66
2022-08-09T15:12:08.234Z,27.66
2022-08-09T15:13:21.562Z,27.64
2022-08-09T15:14:25.027Z,27.67
2022-08-09T15:15:39.167Z,27.68
2022-08-09T15:16:41.759Z,27.69
2022-08-09T15:17:50.065Z,27.69
2022-08-09T15:18:55.490Z,27.69
2022-08-09T15:20:02.783Z,27.68